createdAt,value
2022-11-24T00:01:15.352Z,99779.91
2022-11-24T00:03:43.988Z,99790.47
2022-11-24T00:06:13.529Z,99784.69
2022-11-24T00:08:44.491Z,99791.28
2022-11-24T00:11:14.216Z,99783.38
2022-11-24T00:13:42.475Z,99790.00
2022-11-24T00:16:13.064Z,99792.66
2022-11-24T00:18:42.117Z,99795.84
2022-11-24T00:21:10.299Z,99796.94
2022-11-24T00:23:38.711Z,99785.88
2022-11-24T00:26:08.470Z,99804.91
2022-11-24T00:28:37.570Z,99803.31
2022-11-24T00:31:08.685Z,99798.53
2022-11-24T00:33:40.788Z,99803.81
2022-11-24T00:36:09.062Z,99799.81
2022-11-24T00:38:37.188Z,99803.28
2022-11-24T00:41:05.137Z,99802.72
2022-11-24T00:43:33.681Z,99808.81
2022-11-24T00:46:01.840Z,99806.41
2022-11-24T00:48:30.826Z,99815.38
2022-11-24T00:51:02.256Z,99817.47
2022-11-24T00:53:30.913Z,99820.66
2022-11-24T00:55:58.782Z,99833.84
2022-11-24T00:58:27.474Z,99834.91
2022-11-24T01:00:56.161Z,99834.91
2022-11-24T01:03:24.333Z,99840.69
2022-11-24T01:05:52.193Z,99841.72
2022-11-24T01:08:21.664Z,99852.53
2022-11-24T01:10:49.626Z,99851.75
2022-11-24T01:13:17.760Z,99864.38
2022-11-24T01:15:45.642Z,99871.25
2022-11-24T01:18:13.765Z,99865.97
2022-11-24T01:20:41.665Z,99873.34
2022-11-24T01:23:10.139Z,99869.19
2022-11-24T01:25:41.662Z,99871.56
2022-11-24T01:28:09.767Z,99876.03
2022-11-24T01:30:37.751Z,99867.34
2022-11-24T01:33:06.035Z,99876.53
2022-11-24T01:35:33.963Z,99882.38
2022-11-24T01:38:02.109Z,99889.25
2022-11-24T01:40:29.985Z,99885.50
2022-11-24T01:42:59.506Z,99881.50
2022-11-24T01:45:36.603Z,99890.78
2022-11-24T01:48:06.907Z,99889.66
2022-11-24T01:50:36.821Z,99904.50
2022-11-24T01:53:05.743Z,99914.50
2022-11-24T01:55:37.252Z,99907.63
2022-11-24T01:58:09.322Z,99906.56
2022-11-24T02:00:38.128Z,99906.56
2022-11-24T02:03:06.681Z,99906.88
2022-11-24T02:05:39.178Z,99908.28
2022-11-24T02:08:10.616Z,99908.91
2022-11-24T02:10:38.960Z,99915.28
2022-11-24T02:13:08.518Z,99912.19
2022-11-24T02:15:36.860Z,99905.34
2022-11-24T02:18:05.681Z,99910.69
2022-11-24T02:20:34.047Z,99899.06
2022-11-24T02:23:04.902Z,99909.09
2022-11-24T02:25:37.143Z,99896.91
2022-11-24T02:28:08.875Z,99906.41
2022-11-24T02:30:37.087Z,99904.47
2022-11-24T02:33:05.329Z,99903.63
2022-11-24T02:35:33.404Z,99904.13
2022-11-24T02:38:01.701Z,99906.47
2022-11-24T02:40:31.001Z,99906.13
2022-11-24T02:43:02.457Z,99902.94
2022-11-24T02:45:32.152Z,99901.34
2022-11-24T02:48:00.493Z,99904.25
2022-11-24T02:50:28.422Z,99910.31
2022-11-24T02:52:56.592Z,99912.41
2022-11-24T02:55:24.725Z,99906.00
2022-11-24T02:57:53.008Z,99915.47
2022-11-24T03:00:21.389Z,99912.28
2022-11-24T03:02:51.505Z,99913.09
2022-11-24T03:05:20.233Z,99915.47
2022-11-24T03:07:48.441Z,99923.94
2022-11-24T03:10:16.929Z,99921.03
2022-11-24T03:12:45.058Z,99928.75
2022-11-24T03:15:12.999Z,99930.34
2022-11-24T03:17:41.330Z,99930.34
2022-11-24T03:20:12.060Z,99927.13
2022-11-24T03:22:40.216Z,99928.19
2022-11-24T03:25:08.799Z,99932.91
2022-11-24T03:27:37.051Z,99936.59
2022-11-24T03:30:05.614Z,99939.31
2022-11-24T03:32:33.918Z,99929.84
2022-11-24T03:35:01.924Z,99915.91
2022-11-24T03:37:31.538Z,99917.81
2022-11-24T03:39:59.515Z,99928.66
2022-11-24T03:42:27.743Z,99932.69
2022-11-24T03:44:55.677Z,99935.88
2022-11-24T03:47:23.798Z,99932.75
2022-11-24T03:49:51.730Z,99930.09
2022-11-24T03:52:19.869Z,99930.59
2022-11-24T03:54:49.106Z,99931.56
2022-11-24T03:57:17.229Z,99930.97
2022-11-24T03:59:45.137Z,99929.84
2022-11-24T04:02:13.347Z,99937.19
2022-11-24T04:04:44.671Z,99941.13
2022-11-24T04:07:15.254Z,99937.19
2022-11-24T04:09:43.212Z,99938.81
2022-11-24T04:12:38.496Z,99953.34
2022-11-24T04:15:07.253Z,99952.09
2022-11-24T04:17:35.601Z,99953.66
2022-11-24T04:20:04.085Z,99944.22
2022-11-24T04:22:32.393Z,99951.09
2022-11-24T04:25:00.342Z,99964.88
2022-11-24T04:27:30.271Z,99964.88
2022-11-24T04:29:58.226Z,99959.59
2022-11-24T04:32:26.518Z,99958.28
2022-11-24T04:34:54.402Z,99962.28
2022-11-24T04:37:22.555Z,99965.00
2022-11-24T04:39:50.439Z,99957.13
2022-11-24T04:42:18.677Z,99968.75
2022-11-24T04:44:47.968Z,99967.69
2022-11-24T04:47:17.104Z,99972.50
2022-11-24T04:49:45.015Z,99979.13
2022-11-24T04:52:13.211Z,99976.16
2022-11-24T04:54:41.120Z,99970.88
2022-11-24T04:57:10.648Z,99988.34
2022-11-24T04:59:38.513Z,99980.50
2022-11-24T05:02:08.087Z,99985.78
2022-11-24T05:04:36.577Z,99978.38
2022-11-24T05:07:05.330Z,99992.16
2022-11-24T05:09:58.067Z,99992.16
2022-11-24T05:12:21.580Z,99998.00
2022-11-24T05:14:49.515Z,99988.00
2022-11-24T05:17:19.561Z,99991.16
2022-11-24T05:19:47.482Z,99984.03
2022-11-24T05:22:15.671Z,99994.84
2022-11-24T05:24:43.598Z,99999.59
2022-11-24T05:27:12.350Z,100003.03
2022-11-24T05:29:40.299Z,99997.00
2022-11-24T05:32:08.559Z,99998.63
2022-11-24T05:34:38.023Z,100003.94
2022-11-24T05:37:06.507Z,100005.06
2022-11-24T05:39:34.891Z,100008.28
2022-11-24T05:42:24.502Z,100020.19
2022-11-24T05:44:52.607Z,100015.94
2022-11-24T05:47:20.925Z,100029.41
2022-11-24T05:49:50.258Z,100030.44
2022-11-24T05:52:18.407Z,100031.50
2022-11-24T05:54:46.302Z,100032.00
2022-11-24T05:57:14.532Z,100030.38
2022-11-24T05:59:42.436Z,100031.44
2022-11-24T06:02:10.869Z,100035.66
2022-11-24T06:04:39.138Z,100030.38
2022-11-24T06:07:10.858Z,100027.97
2022-11-24T06:09:39.136Z,100029.66
2022-11-24T06:12:08.142Z,100042.06
2022-11-24T06:14:36.428Z,100042.56
2022-11-24T06:17:06.643Z,100039.34
2022-11-24T06:19:38.645Z,100032.47
2022-11-24T06:22:11.096Z,100031.34
2022-11-24T06:24:39.125Z,100040.91
2022-11-24T06:27:07.631Z,100045.63
2022-11-24T06:29:35.522Z,100054.56
2022-11-24T06:32:03.834Z,100055.06
2022-11-24T06:34:32.244Z,100049.97
2022-11-24T06:37:00.927Z,100057.16
2022-11-24T06:39:30.246Z,100058.44
2022-11-24T06:41:58.563Z,100065.03
2022-11-24T06:44:26.533Z,100056.53
2022-11-24T06:46:54.953Z,100065.50
2022-11-24T06:49:22.866Z,100070.94
2022-11-24T06:51:51.034Z,100070.16
2022-11-24T06:54:20.993Z,100070.94
2022-11-24T06:56:50.770Z,100075.94
2022-11-24T06:59:20.915Z,100081.22
2022-11-24T07:01:49.171Z,100088.59
2022-11-24T07:04:17.388Z,100092.25
2022-11-24T07:06:45.605Z,100093.88
2022-11-24T07:09:14.626Z,100094.34
2022-11-24T07:11:43.509Z,100100.41
2022-11-24T07:14:12.813Z,100099.63
2022-11-24T07:16:41.394Z,100101.22
2022-11-24T07:19:10.063Z,100107.31
2022-11-24T07:21:38.268Z,100109.97
2022-11-24T07:24:06.968Z,100121.88
2022-11-24T07:26:37.159Z,100119.31
2022-11-24T07:29:05.903Z,100131.47
2022-11-24T07:31:35.430Z,100131.47
2022-11-24T07:34:03.405Z,100133.09
2022-11-24T07:36:32.248Z,100128.81
2022-11-24T07:39:00.303Z,100129.88
2022-11-24T07:41:28.490Z,100145.41
2022-11-24T07:43:56.619Z,100152.84
2022-11-24T07:46:24.949Z,100149.97
2022-11-24T07:48:54.311Z,100151.56
2022-11-24T07:51:22.599Z,100143.66
2022-11-24T07:53:50.503Z,100153.72
2022-11-24T07:56:18.701Z,100157.44
2022-11-24T07:58:51.358Z,100160.59
2022-11-24T08:01:21.213Z,100163.00
2022-11-24T08:03:49.221Z,100169.09
2022-11-24T08:06:26.125Z,100169.19
2022-11-24T08:08:55.684Z,100173.41
2022-11-24T08:11:24.076Z,100178.69
2022-11-24T08:13:52.077Z,100181.13
2022-11-24T08:16:20.936Z,100186.63
2022-11-24T08:18:50.905Z,100182.38
2022-11-24T08:21:20.969Z,100190.06
2022-11-24T08:23:48.919Z,100183.53
2022-11-24T08:26:19.197Z,100192.56
2022-11-24T08:28:48.022Z,100192.31
2022-11-24T08:31:19.504Z,100200.81
2022-11-24T08:33:47.877Z,100197.34
2022-11-24T08:36:18.475Z,100208.50
2022-11-24T08:38:48.857Z,100212.97
2022-11-24T08:41:18.229Z,100209.63
2022-11-24T08:43:46.134Z,100198.25
2022-11-24T08:46:17.081Z,100199.59
2022-11-24T08:48:47.167Z,100219.72
2022-11-24T08:51:18.799Z,100213.94
2022-11-24T08:53:48.414Z,100212.41
2022-11-24T08:56:16.567Z,100228.34
2022-11-24T08:58:44.741Z,100230.97
2022-11-24T09:01:14.528Z,100243.75
2022-11-24T09:03:49.765Z,100229.38
2022-11-24T09:06:19.743Z,100234.13
2022-11-24T09:08:49.498Z,100241.03
2022-11-24T09:11:17.920Z,100246.31
2022-11-24T09:13:46.187Z,100247.41
2022-11-24T09:16:16.496Z,100245.97
2022-11-24T09:18:44.901Z,100248.53
2022-11-24T09:21:14.749Z,100238.56
2022-11-24T09:23:43.599Z,100236.78
2022-11-24T09:26:14.446Z,100246.88
2022-11-24T09:28:43.042Z,100250.09
2022-11-24T09:31:12.745Z,100250.69
2022-11-24T09:33:41.990Z,100268.25
2022-11-24T09:36:10.684Z,100275.22
2022-11-24T09:38:38.703Z,100274.72
2022-11-24T09:41:25.257Z,100281.63
2022-11-24T09:43:58.291Z,100281.94
2022-11-24T09:46:31.464Z,100281.75
2022-11-24T09:48:59.627Z,100286.09
2022-11-24T09:51:29.478Z,100278.97
2022-11-24T09:54:01.385Z,100294.09
2022-11-24T09:56:34.390Z,100284.84
2022-11-24T09:59:04.217Z,100287.91
2022-11-24T10:01:34.356Z,100294.78
2022-11-24T10:04:06.228Z,100302.22
2022-11-24T10:06:40.485Z,100305.44
2022-11-24T10:09:37.542Z,100312.81
2022-11-24T10:12:17.372Z,100307.78
2022-11-24T10:15:25.447Z,100300.88
2022-11-24T10:18:16.951Z,100304.03
2022-11-24T10:20:53.520Z,100295.75
2022-11-24T10:23:33.530Z,100306.81
2022-11-24T10:26:09.502Z,100308.91
2022-11-24T10:28:42.971Z,100312.69
2022-11-24T10:31:19.698Z,100318.13
2022-11-24T10:33:48.865Z,100321.44
2022-11-24T10:36:21.793Z,100317.41
2022-11-24T10:38:55.206Z,100317.03
2022-11-24T10:41:25.783Z,100305.72
2022-11-24T10:43:58.616Z,100315.06
2022-11-24T10:46:28.006Z,100308.81
2022-11-24T10:48:59.341Z,100312.63
2022-11-24T10:51:48.759Z,100304.22
2022-11-24T10:54:18.584Z,100316.41
2022-11-24T10:56:48.280Z,100305.59
2022-11-24T10:59:31.969Z,100306.19
2022-11-24T11:02:00.467Z,100313.38
2022-11-24T11:04:30.221Z,100313.47
2022-11-24T11:07:18.439Z,100308.75
2022-11-24T11:09:47.644Z,100311.72
2022-11-24T11:12:42.589Z,100311.56
2022-11-24T11:15:25.273Z,100304.28
2022-11-24T11:17:57.721Z,100313.50
2022-11-24T11:20:29.842Z,100305.81
2022-11-24T11:22:59.093Z,100303.47
2022-11-24T11:25:31.666Z,100302.47
2022-11-24T11:28:24.656Z,100310.63
2022-11-24T11:31:19.710Z,100329.31
2022-11-24T11:34:03.601Z,100319.00
2022-11-24T11:36:33.730Z,100323.81
2022-11-24T11:39:01.721Z,100322.06
2022-11-24T11:41:34.712Z,100326.94
2022-11-24T11:44:21.278Z,100330.44
2022-11-24T11:46:50.843Z,100336.16
2022-11-24T11:49:18.774Z,100325.47
2022-11-24T11:52:09.514Z,100336.56
2022-11-24T11:54:55.694Z,100331.41
2022-11-24T11:57:31.469Z,100326.44
2022-11-24T12:00:06.287Z,100314.72
2022-11-24T12:03:02.070Z,100316.03
2022-11-24T12:05:45.114Z,100326.44
2022-11-24T12:08:24.673Z,100323.25
2022-11-24T12:10:59.565Z,100324.06
2022-11-24T12:13:40.916Z,100328.56
2022-11-24T12:16:15.533Z,100332.19
2022-11-24T12:18:58.625Z,100334.06
2022-11-24T12:21:30.905Z,100342.31
2022-11-24T12:24:07.608Z,100335.53
2022-11-24T12:26:40.575Z,100341.06
2022-11-24T12:29:26.302Z,100341.06
2022-11-24T12:31:58.935Z,100338.59
2022-11-24T12:34:39.564Z,100350.72
2022-11-24T12:37:19.690Z,100337.06
2022-11-24T12:39:53.735Z,100348.97
2022-11-24T12:42:30.361Z,100348.72
2022-11-24T12:45:13.067Z,100346.50
2022-11-24T12:47:50.734Z,100350.34
2022-11-24T12:50:21.805Z,100368.63
2022-11-24T12:52:58.443Z,100361.84
2022-11-24T12:55:28.124Z,100356.44
2022-11-24T12:57:59.946Z,100361.03
2022-11-24T13:00:32.315Z,100357.34
2022-11-24T13:03:20.628Z,100355.72
2022-11-24T13:05:54.499Z,100361.41
2022-11-24T13:08:23.292Z,100345.94
2022-11-24T13:10:56.540Z,100347.34
2022-11-24T13:13:29.085Z,100348.00
2022-11-24T13:16:36.248Z,100349.38
2022-11-24T13:19:10.702Z,100354.56
2022-11-24T13:22:02.508Z,100348.66
2022-11-24T13:24:33.670Z,100354.06
2022-11-24T13:27:40.962Z,100355.41
2022-11-24T13:30:50.941Z,100355.00
2022-11-24T13:33:34.507Z,100357.75
2022-11-24T13:36:36.041Z,100367.97
2022-11-24T13:39:20.165Z,100362.59
2022-11-24T13:42:09.353Z,100367.69
2022-11-24T13:44:47.991Z,100368.63
2022-11-24T13:47:42.886Z,100383.47
2022-11-24T13:50:23.233Z,100361.66
2022-11-24T13:52:57.946Z,100364.88
2022-11-24T13:55:30.979Z,100371.81
2022-11-24T13:58:20.278Z,100363.38
2022-11-24T14:01:04.724Z,100358.31
2022-11-24T14:03:35.502Z,100350.16
2022-11-24T14:06:04.565Z,100357.69
2022-11-24T14:08:34.191Z,100357.47
2022-11-24T14:11:05.227Z,100366.94
2022-11-24T14:13:34.350Z,100361.06
2022-11-24T14:16:05.088Z,100355.13
2022-11-24T14:18:33.726Z,100357.22
2022-11-24T14:21:03.629Z,100346.34
2022-11-24T14:23:32.406Z,100346.94
2022-11-24T14:26:00.578Z,100359.59
2022-11-24T14:28:30.280Z,100348.06
2022-11-24T14:31:08.875Z,100350.81
2022-11-24T14:33:37.063Z,100351.03
2022-11-24T14:36:06.201Z,100352.88
2022-11-24T14:38:34.850Z,100351.91
2022-11-24T14:41:16.402Z,100358.31
2022-11-24T14:43:45.706Z,100358.84
2022-11-24T14:46:19.885Z,100367.91
2022-11-24T14:48:49.481Z,100366.59
2022-11-24T14:51:22.369Z,100359.28
2022-11-24T14:53:52.533Z,100362.59
2022-11-24T14:56:26.360Z,100362.69
2022-11-24T14:58:56.914Z,100376.53
2022-11-24T15:01:32.505Z,100377.63
2022-11-24T15:04:32.826Z,100389.38
2022-11-24T15:07:15.319Z,100380.34
2022-11-24T15:09:51.443Z,100386.19
2022-11-24T15:12:28.525Z,100393.34
2022-11-24T15:14:59.197Z,100392.81
2022-11-24T15:17:29.216Z,100391.97
2022-11-24T15:19:59.755Z,100392.72
2022-11-24T15:22:35.436Z,100393.47
2022-11-24T15:25:03.976Z,100389.97
2022-11-24T15:27:32.109Z,100404.00
2022-11-24T15:30:01.318Z,100397.06
2022-11-24T15:32:29.637Z,100399.44
2022-11-24T15:34:57.539Z,100398.09
2022-11-24T15:37:28.860Z,100399.91
2022-11-24T15:40:00.737Z,100412.34
2022-11-24T15:42:28.909Z,100398.94
2022-11-24T15:44:56.785Z,100406.53
2022-11-24T15:47:26.283Z,100405.97
2022-11-24T15:49:54.185Z,100409.88
2022-11-24T15:52:22.430Z,100412.44
2022-11-24T15:54:53.662Z,100415.03
2022-11-24T15:57:21.884Z,100411.25
2022-11-24T15:59:50.032Z,100412.53
2022-11-24T16:02:19.356Z,100414.88
2022-11-24T16:04:48.672Z,100420.19
2022-11-24T16:07:16.906Z,100424.94
2022-11-24T16:09:44.967Z,100427.59
2022-11-24T16:12:13.145Z,100427.28
2022-11-24T16:14:41.128Z,100428.28
2022-11-24T16:17:09.353Z,100438.03
2022-11-24T16:19:41.656Z,100442.50
2022-11-24T16:22:11.589Z,100434.50
2022-11-24T16:24:39.530Z,100433.06
2022-11-24T16:27:07.728Z,100443.03
2022-11-24T16:29:38.535Z,100437.59
2022-11-24T16:32:07.299Z,100439.69
2022-11-24T16:34:35.436Z,100437.53
2022-11-24T16:37:04.124Z,100440.69
2022-11-24T16:39:33.732Z,100440.13
2022-11-24T16:42:01.949Z,100436.91
2022-11-24T16:44:30.063Z,100432.13
2022-11-24T16:46:58.326Z,100440.00
2022-11-24T16:49:26.282Z,100432.47
2022-11-24T16:51:54.681Z,100441.72
2022-11-24T16:54:22.722Z,100445.66
2022-11-24T16:56:52.312Z,100437.16
2022-11-24T16:59:20.186Z,100441.41
2022-11-24T17:01:50.501Z,100446.16
2022-11-24T17:04:18.856Z,100441.34
2022-11-24T17:06:47.217Z,100439.44
2022-11-24T17:09:15.213Z,100439.13
2022-11-24T17:11:43.408Z,100445.38
2022-11-24T17:14:12.936Z,100433.69
2022-11-24T17:16:41.170Z,100441.53
2022-11-24T17:19:09.319Z,100439.91
2022-11-24T17:21:37.659Z,100447.34
2022-11-24T17:24:06.396Z,100452.06
2022-11-24T17:26:35.173Z,100448.25
2022-11-24T17:29:03.283Z,100458.84
2022-11-24T17:31:35.723Z,100456.44
2022-11-24T17:34:05.577Z,100450.81
2022-11-24T17:36:34.876Z,100447.63
2022-11-24T17:39:04.943Z,100442.00
2022-11-24T17:41:33.894Z,100446.97
2022-11-24T17:44:01.849Z,100452.75
2022-11-24T17:46:31.615Z,100453.25
2022-11-24T17:49:01.028Z,100457.41
2022-11-24T17:51:29.308Z,100452.59
2022-11-24T17:54:05.976Z,100455.72
2022-11-24T17:56:48.245Z,100461.03
2022-11-24T17:59:16.711Z,100454.09
2022-11-24T18:01:44.935Z,100464.16
2022-11-24T18:04:14.507Z,100466.22
2022-11-24T18:06:42.739Z,100466.72
2022-11-24T18:09:10.877Z,100458.22
2022-11-24T18:11:39.140Z,100472.94
2022-11-24T18:14:07.050Z,100477.13
2022-11-24T18:16:35.665Z,100470.69
2022-11-24T18:19:09.959Z,100467.94
2022-11-24T18:21:41.125Z,100478.78
2022-11-24T18:24:09.790Z,100472.94
2022-11-24T18:26:37.990Z,100471.31
2022-11-24T18:29:06.516Z,100467.31
2022-11-24T18:31:35.798Z,100474.69
2022-11-24T18:34:05.136Z,100471.94
2022-11-24T18:36:33.523Z,100466.66
2022-11-24T18:39:03.223Z,100475.53
2022-11-24T18:41:31.736Z,100474.63
2022-11-24T18:44:02.139Z,100472.72
2022-11-24T18:46:30.249Z,100465.81
2022-11-24T18:48:58.419Z,100466.28
2022-11-24T18:51:27.146Z,100466.75
2022-11-24T18:53:57.782Z,100465.16
2022-11-24T18:56:27.598Z,100469.88
2022-11-24T18:58:57.117Z,100462.75
2022-11-24T19:01:26.519Z,100462.97
2022-11-24T19:03:56.372Z,100461.94
2022-11-24T19:06:28.489Z,100458.25
2022-11-24T19:08:57.079Z,100456.66
2022-11-24T19:11:28.111Z,100449.78
2022-11-24T19:13:56.912Z,100442.63
2022-11-24T19:16:25.557Z,100446.06
2022-11-24T19:18:57.124Z,100433.91
2022-11-24T19:21:25.067Z,100437.34
2022-11-24T19:23:53.808Z,100432.84
2022-11-24T19:26:21.905Z,100437.09
2022-11-24T19:28:51.524Z,100435.50
2022-11-24T19:31:20.203Z,100433.91
2022-11-24T19:33:48.516Z,100442.84
2022-11-24T19:36:18.877Z,100440.44
2022-11-24T19:38:50.864Z,100431.16
2022-11-24T19:41:20.368Z,100436.94
2022-11-24T19:43:49.077Z,100434.53
2022-11-24T19:46:20.137Z,100437.94
2022-11-24T19:48:50.877Z,100444.28
2022-11-24T19:51:21.307Z,100446.34
2022-11-24T19:53:49.551Z,100449.47
2022-11-24T19:56:18.733Z,100449.38
2022-11-24T19:58:47.951Z,100439.03
2022-11-24T20:01:18.965Z,100431.34
2022-11-24T20:03:49.305Z,100430.78
2022-11-24T20:06:17.406Z,100430.78
2022-11-24T20:08:45.598Z,100427.56
2022-11-24T20:11:14.861Z,100435.47
2022-11-24T20:13:44.763Z,100426.78
2022-11-24T20:16:14.788Z,100431.25
2022-11-24T20:18:46.058Z,100432.28
2022-11-24T20:21:15.523Z,100420.09
2022-11-24T20:23:44.066Z,100428.59
2022-11-24T20:26:13.669Z,100436.53
2022-11-24T20:28:42.426Z,100446.28
2022-11-24T20:31:12.147Z,100449.16
2022-11-24T20:33:40.658Z,100447.00
2022-11-24T20:36:11.521Z,100439.53
2022-11-24T20:38:40.446Z,100446.06
2022-11-24T20:41:10.351Z,100443.03
2022-11-24T20:43:39.421Z,100447.03
2022-11-24T20:46:09.528Z,100448.22
2022-11-24T20:48:38.429Z,100455.22
2022-11-24T20:51:07.929Z,100457.06
2022-11-24T20:53:39.055Z,100446.38
2022-11-24T20:56:09.110Z,100456.81
2022-11-24T20:58:38.621Z,100447.03
2022-11-24T21:01:08.045Z,100451.75
2022-11-24T21:03:42.583Z,100440.50
2022-11-24T21:06:12.120Z,100452.88
2022-11-24T21:08:43.109Z,100449.22
2022-11-24T21:11:12.654Z,100450.81
2022-11-24T21:13:42.441Z,100458.59
2022-11-24T21:16:14.404Z,100454.38
2022-11-24T21:18:42.797Z,100457.00
2022-11-24T21:21:10.842Z,100454.84
2022-11-24T21:23:40.769Z,100462.75
2022-11-24T21:26:16.301Z,100457.94
2022-11-24T21:28:46.993Z,100463.41
2022-11-24T21:31:17.334Z,100468.47
2022-11-24T21:33:46.956Z,100461.00
2022-11-24T21:36:16.173Z,100463.50
2022-11-24T21:38:50.923Z,100461.78
2022-11-24T21:41:19.328Z,100467.50
2022-11-24T21:43:47.877Z,100466.25
2022-11-24T21:46:16.591Z,100478.63
2022-11-24T21:48:45.476Z,100475.84
2022-11-24T21:51:16.001Z,100465.75
2022-11-24T21:53:46.925Z,100460.47
2022-11-24T21:56:16.922Z,100462.88
2022-11-24T21:58:48.166Z,100459.78
2022-11-24T22:01:17.903Z,100457.97
2022-11-24T22:03:46.705Z,100462.44
2022-11-24T22:06:15.359Z,100459.78
2022-11-24T22:08:43.952Z,100462.44
2022-11-24T22:11:14.720Z,100461.63
2022-11-24T22:13:44.260Z,100464.84
2022-11-24T22:16:13.831Z,100461.97
2022-11-24T22:18:43.514Z,100466.78
2022-11-24T22:21:13.354Z,100463.16
2022-11-24T22:23:41.638Z,100467.16
2022-11-24T22:26:14.784Z,100459.00
2022-11-24T22:28:43.877Z,100460.63
2022-11-24T22:31:13.492Z,100458.56
2022-11-24T22:33:43.762Z,100462.59
2022-11-24T22:36:12.503Z,100465.00
2022-11-24T22:38:41.635Z,100458.69
2022-11-24T22:41:11.433Z,100454.00
2022-11-24T22:43:43.012Z,100454.81
2022-11-24T22:46:12.850Z,100454.00
2022-11-24T22:48:41.555Z,100457.69
2022-11-24T22:51:11.295Z,100457.69
2022-11-24T22:53:39.762Z,100450.00
2022-11-24T22:56:10.395Z,100459.72
2022-11-24T22:58:52.189Z,100460.78
2022-11-24T23:01:21.622Z,100455.50
2022-11-24T23:03:50.305Z,100459.97
2022-11-24T23:06:20.258Z,100468.09
2022-11-24T23:08:50.703Z,100465.91
2022-11-24T23:11:24.674Z,100469.22
2022-11-24T23:14:00.866Z,100472.72
2022-11-24T23:16:29.447Z,100462.34
2022-11-24T23:18:58.280Z,100462.81
2022-11-24T23:21:27.727Z,100463.69
2022-11-24T23:23:56.484Z,100462.06
2022-11-24T23:26:25.865Z,100466.66
2022-11-24T23:28:54.063Z,100465.78
2022-11-24T23:31:27.334Z,100471.34
2022-11-24T23:33:55.656Z,100475.78
2022-11-24T23:36:23.713Z,100481.75
2022-11-24T23:38:52.214Z,100477.66
2022-11-24T23:41:21.888Z,100475.56
2022-11-24T23:43:50.704Z,100472.50
2022-11-24T23:46:20.811Z,100460.94
2022-11-24T23:48:51.701Z,100460.38
2022-11-24T23:51:21.136Z,100466.06
2022-11-24T23:53:50.448Z,100461.63
2022-11-24T23:56:21.177Z,100458.19
2022-11-24T23:58:49.744Z,100456.56
